New Town, ND (58763)

12:42 AM CDT on July 31, 2014 (GMT -0500)
Stanley (K08D) Elev 2244 ft | 48.30 °N, 102.41 °W | Change Station

Current weather conditions updated 27 minutes ago

Clear
Clear
57 °F
Feels Like 57 °F
N
0
Wind Variable Wind from North

Today is forecast to be Warmer than yesterday.

Today
High -- | Low -- °F
--% Chance of Precip.
Yesterday
High -- | Low -- °F
Precip. -- in
6:25 AM 9:26 PM
Waxing Crescent, 16% visible
Pressure 30.13 in
Visibility 10.0 miles
Clouds Clear
Dew Point 57 °F
Humidity 100%
Rainfall 0.00 in
Snow Depth Not available.
UV 0 out of 12
Pollen 6.80 out of 12
Air Quality Not available.
Flu Activity Not available.
METAR K08D 310515Z AUTO 00000KT 10SM VCTS CLR 14/14 A3013 RMK AO2 LTG DSNT W AND NW

More Conditions Fewer Conditions

Pressure 30.13 in
Visibility 10.0 miles
Clouds Clear
Dew Point 57 °F
Humidity 100%
Rainfall 0.00 in
Snow Depth Not available.
UV 0 out of 12
Pollen 6.80 out of 12
Air Quality Not available.
Flu Activity Not available.
METAR K08D 310515Z AUTO 00000KT 10SM VCTS CLR 14/14 A3013 RMK AO2 LTG DSNT W AND NW

More Conditions Fewer Conditions

10-Day Weather Forecast

Almanac

Astronomy

Jul. 31, 2014 Rise Set
Actual Time 6:25 AM CDT 9:26 PM CDT
Civil Twilight 5:48 AM CDT 10:03 PM CDT
Nautical Twilight 5:01 AM CDT 10:50 PM CDT
Astronomical Twilight 4:02 AM CDT 11:47 PM CDT
Moon 11:18 AM CDT 11:14 PM CDT
Length of Visible Light 16h 14m
Length of Day
15h 01m
Tomorrow will be 2m 42s shorter.
Waxing Crescent, 16% of the Moon is Illuminated
Today
Waxing Crescent
Aug 3
First Quarter
Aug 10
Full
Aug 17
Last Quarter
Aug 25
New

Today's Extremes

State Highs State Lows

Community

WunderPhotos

Upload Photos

1,739,249 photos uploaded!

Nearby

Snow Depth

Station Depth Elevation
No new snow has been reported.

Earthquake Activity

City Distance Mag. Time & Date
No recent earthquake activity has been reported nearby.
Minimum magnitude displayed is 2.5.

Coastal Water Temperatures

Place Temperature
No Stations Reporting

Nearby Weather Stations

There are no personal weather stations in this area.